MMTM/TAM METAR and TAF weather

Enter ICAO airport designator
Station Type Date Time Source
MMTM METAR 2021/01/16 02:43 UTC NOAA

MMTM 160243Z E02012G22KT 10SM SCT200 18/11 A3019 RMK 8/006 METAR MMTO 160251Z 34003KT 7SM SCT015 11/04 A3036 RMK SLP153 52026 959 8/400 HZY


Station Type Date Time Source
MMTM Decoded METAR 2021/01/16 02:43 UTC NOAA

Tampico / Gen Fj Mina, Mexico (MMTM) 22-17N 097-52W
Jan 15, 2021 - 09:43 PM EST / 2021.01.16 0243 UTC
Visibility: 10 mile(s):0
Sky conditions: partly cloudy
Temperature: 64 F (18 C)
Dew Point: 51 F (11 C)
Relative Humidity: 63%
Pressure (altimeter): 30.19 in. Hg (1022 hPa)
ob: MMTM 160243Z E02012G22KT 10SM SCT200 18/11 A3019 RMK 8/006 METAR MMTO 160251Z 34003KT 7SM SCT015 11/04 A3036 RMK SLP153 52026 959 8/400 HZY
cycle: 2

Station Type Date Time Source
MMTM TAF 2021/01/15 18:39 UTC NOAA

TAF MMTM 151631Z 1518/1618 02012G22KT P6SM SCT050 BKN250
FM160300 01012KT P6SM SCT015 BKN250
FM161500 03010KT P6SM BKN020 BKN250

Example: see airport list